createdAt,value
2022-12-03T00:01:22.531Z,78.44
2022-12-03T00:03:49.167Z,78.55
2022-12-03T00:06:15.926Z,78.56
2022-12-03T00:08:42.384Z,79.28
2022-12-03T00:11:08.772Z,79.12
2022-12-03T00:13:35.123Z,78.62
2022-12-03T00:16:01.773Z,78.83
2022-12-03T00:18:28.332Z,78.66
2022-12-03T00:20:54.767Z,78.00
2022-12-03T00:23:21.298Z,77.51
2022-12-03T00:25:47.660Z,77.83
2022-12-03T00:28:14.193Z,76.73
2022-12-03T00:30:40.604Z,77.57
2022-12-03T00:33:07.023Z,77.77
2022-12-03T00:35:33.479Z,77.45
2022-12-03T00:38:02.712Z,77.00
2022-12-03T00:40:29.146Z,77.42
2022-12-03T00:42:55.536Z,77.34
2022-12-03T00:45:22.051Z,77.26
2022-12-03T00:47:48.856Z,76.88
2022-12-03T00:50:16.371Z,76.83
2022-12-03T00:52:42.748Z,76.69
2022-12-03T00:55:09.488Z,76.80
2022-12-03T01:00:36.617Z,76.56
2022-12-03T01:03:03.585Z,76.49
2022-12-03T01:05:29.971Z,76.54
2022-12-03T01:07:56.398Z,76.25
2022-12-03T01:10:22.889Z,76.13
2022-12-03T01:12:49.399Z,75.86
2022-12-03T01:15:15.791Z,75.88
2022-12-03T01:17:42.276Z,75.95
2022-12-03T01:20:09.622Z,75.80
2022-12-03T01:22:36.153Z,75.50
2022-12-03T01:25:03.139Z,75.41
2022-12-03T01:27:29.546Z,75.60
2022-12-03T01:29:55.923Z,75.78
2022-12-03T01:32:22.338Z,75.69
2022-12-03T01:34:54.179Z,75.95
2022-12-03T01:37:23.644Z,75.86
2022-12-03T01:39:50.587Z,75.69
2022-12-03T01:42:29.963Z,75.95
2022-12-03T01:44:58.300Z,75.97
2022-12-03T01:47:33.141Z,75.66
2022-12-03T01:50:03.791Z,75.74
2022-12-03T01:52:34.220Z,75.64
2022-12-03T01:55:04.061Z,75.71
2022-12-03T01:57:40.426Z,75.82
2022-12-03T02:00:12.859Z,75.64
2022-12-03T02:02:42.795Z,75.50
2022-12-03T02:05:22.280Z,75.66
2022-12-03T02:07:48.967Z,75.70
2022-12-03T02:10:17.684Z,75.80
2022-12-03T02:12:49.052Z,75.83
2022-12-03T02:15:18.353Z,75.70
2022-12-03T02:17:48.112Z,75.97
2022-12-03T02:20:17.936Z,75.78
2022-12-03T02:23:18.514Z,75.43
2022-12-03T02:25:44.962Z,75.81
2022-12-03T02:28:11.565Z,75.76
2022-12-03T02:30:38.037Z,75.55
2022-12-03T02:33:05.053Z,75.63
2022-12-03T02:35:36.842Z,75.74
2022-12-03T02:38:23.008Z,75.79
2022-12-03T02:40:53.590Z,75.51
2022-12-03T02:43:21.033Z,75.32
2022-12-03T02:45:52.071Z,75.23
2022-12-03T02:48:25.366Z,75.26
2022-12-03T02:50:55.129Z,75.83
2022-12-03T02:53:27.454Z,75.78
2022-12-03T02:55:56.000Z,75.82
2022-12-03T02:58:24.551Z,75.79
2022-12-03T03:00:53.548Z,76.03
2022-12-03T03:03:22.008Z,76.39
2022-12-03T03:05:50.054Z,76.39
2022-12-03T03:08:17.965Z,76.62
2022-12-03T03:10:46.686Z,76.57
2022-12-03T03:13:17.489Z,76.76
2022-12-03T03:15:44.825Z,77.16
2022-12-03T03:18:13.176Z,77.33
2022-12-03T03:20:41.407Z,76.90
2022-12-03T03:23:13.402Z,77.46
2022-12-03T03:25:42.531Z,76.93
2022-12-03T03:28:09.643Z,77.81
2022-12-03T03:30:38.650Z,78.04
2022-12-03T03:33:06.942Z,78.13
2022-12-03T03:35:33.439Z,78.51
2022-12-03T03:38:00.146Z,78.83
2022-12-03T03:40:27.554Z,78.63
2022-12-03T03:42:55.448Z,78.81
2022-12-03T03:45:27.341Z,78.71
2022-12-03T03:47:57.595Z,78.43
2022-12-03T03:50:24.522Z,78.21
2022-12-03T03:52:51.084Z,77.82
2022-12-03T03:55:18.986Z,77.52
2022-12-03T03:57:45.881Z,77.97
2022-12-03T04:00:13.583Z,78.00
2022-12-03T04:02:40.416Z,77.53
2022-12-03T04:05:07.766Z,77.53
2022-12-03T04:07:34.247Z,77.20
2022-12-03T04:10:20.745Z,76.98
2022-12-03T04:12:56.000Z,77.01
2022-12-03T04:15:23.044Z,77.34
2022-12-03T04:18:07.948Z,77.52
2022-12-03T04:20:34.437Z,77.63
2022-12-03T04:23:00.771Z,77.82
2022-12-03T04:25:45.928Z,78.07
2022-12-03T04:28:30.718Z,78.00
2022-12-03T04:30:57.325Z,77.82
2022-12-03T04:33:42.313Z,78.01
2022-12-03T04:36:08.838Z,78.18
2022-12-03T04:38:35.283Z,77.92
2022-12-03T04:41:03.697Z,78.05
2022-12-03T04:43:32.384Z,78.19
2022-12-03T04:45:59.022Z,78.05
2022-12-03T04:48:25.647Z,78.30
2022-12-03T04:50:52.115Z,78.61
2022-12-03T04:53:18.784Z,78.46
2022-12-03T04:55:45.262Z,78.35
2022-12-03T04:58:11.817Z,78.30
2022-12-03T05:00:38.336Z,78.20
2022-12-03T05:03:04.783Z,78.32
2022-12-03T05:05:31.288Z,78.75
2022-12-03T05:07:57.738Z,78.75
2022-12-03T05:10:24.264Z,79.09
2022-12-03T05:12:50.603Z,79.07
2022-12-03T05:15:16.962Z,79.19
2022-12-03T05:17:43.378Z,79.30
2022-12-03T05:20:29.091Z,79.29
2022-12-03T05:22:55.558Z,79.22
2022-12-03T05:25:21.967Z,79.12
2022-12-03T05:27:48.338Z,79.44
2022-12-03T05:30:15.000Z,79.75
2022-12-03T05:32:41.428Z,79.86
2022-12-03T05:35:08.211Z,79.84
2022-12-03T05:37:34.567Z,79.66
2022-12-03T05:40:00.934Z,79.40
2022-12-03T05:42:46.059Z,79.75
2022-12-03T05:45:12.444Z,79.16
2022-12-03T05:47:38.793Z,79.28
2022-12-03T05:50:05.832Z,79.51
2022-12-03T05:52:32.248Z,79.56
2022-12-03T05:54:58.887Z,79.24
2022-12-03T05:57:25.279Z,79.49
2022-12-03T05:59:51.726Z,79.54
2022-12-03T06:02:18.197Z,79.17
2022-12-03T06:04:44.695Z,79.50
2022-12-03T06:07:14.129Z,79.50
2022-12-03T06:09:41.023Z,79.94
2022-12-03T06:12:08.654Z,79.79
2022-12-03T06:14:35.642Z,80.07
2022-12-03T06:17:02.552Z,79.87
2022-12-03T06:19:28.927Z,80.61
2022-12-03T06:21:55.499Z,80.78
2022-12-03T06:24:21.873Z,80.59
2022-12-03T06:26:48.223Z,80.65
2022-12-03T06:29:14.649Z,80.92
2022-12-03T06:31:41.030Z,81.48
2022-12-03T06:34:07.472Z,81.87
2022-12-03T06:36:33.862Z,82.14
2022-12-03T06:39:00.309Z,82.71
2022-12-03T06:41:26.733Z,82.81
2022-12-03T06:43:53.091Z,82.72
2022-12-03T06:46:19.515Z,82.55
2022-12-03T06:48:45.957Z,82.27
2022-12-03T06:51:12.324Z,81.44
2022-12-03T06:53:38.734Z,81.21
2022-12-03T06:56:05.811Z,80.48
2022-12-03T06:58:32.174Z,80.50
2022-12-03T07:00:58.557Z,80.23
2022-12-03T07:03:25.045Z,80.00
2022-12-03T07:05:51.488Z,79.82
2022-12-03T07:08:17.894Z,79.82
2022-12-03T07:10:44.450Z,79.58
2022-12-03T07:13:10.838Z,79.57
2022-12-03T07:15:37.209Z,79.58
2022-12-03T07:18:03.561Z,79.53
2022-12-03T07:20:29.927Z,79.22
2022-12-03T07:22:56.343Z,79.17
2022-12-03T07:25:23.773Z,79.12
2022-12-03T07:27:50.373Z,78.54
2022-12-03T07:32:50.286Z,78.57
2022-12-03T07:35:17.377Z,78.79
2022-12-03T07:37:43.810Z,78.38
2022-12-03T07:40:10.916Z,77.76
2022-12-03T07:42:37.286Z,78.00
2022-12-03T07:45:04.558Z,77.99
2022-12-03T07:47:31.096Z,77.82
2022-12-03T07:49:57.532Z,77.12
2022-12-03T07:52:23.903Z,77.50
2022-12-03T07:54:50.294Z,77.71
2022-12-03T07:57:16.686Z,77.42
2022-12-03T07:59:43.042Z,77.33
2022-12-03T08:02:09.581Z,77.63
2022-12-03T08:04:36.092Z,77.71
2022-12-03T08:07:02.436Z,77.83
2022-12-03T08:09:28.821Z,77.34
2022-12-03T08:11:55.477Z,77.75
2022-12-03T08:14:22.119Z,77.15
2022-12-03T08:16:48.803Z,77.49
2022-12-03T08:19:17.178Z,77.39
2022-12-03T08:21:44.618Z,76.85
2022-12-03T08:24:19.645Z,76.64
2022-12-03T08:26:48.842Z,76.81
2022-12-03T08:29:18.361Z,76.91
2022-12-03T08:31:55.112Z,76.77
2022-12-03T08:34:27.660Z,76.88
2022-12-03T08:37:05.725Z,76.99
2022-12-03T08:39:34.800Z,76.64
2022-12-03T08:42:26.024Z,75.67
2022-12-03T08:44:52.791Z,75.85
2022-12-03T08:47:21.114Z,76.17
2022-12-03T08:49:54.355Z,75.80
2022-12-03T08:52:22.644Z,75.55
2022-12-03T08:54:57.072Z,74.83
2022-12-03T08:57:34.756Z,74.86
2022-12-03T09:00:18.380Z,75.24
2022-12-03T09:02:47.806Z,75.19
2022-12-03T09:05:32.270Z,75.32
2022-12-03T09:07:58.756Z,75.14
2022-12-03T09:10:25.217Z,75.03
2022-12-03T09:12:51.848Z,75.46
2022-12-03T09:15:18.365Z,74.59
2022-12-03T09:17:44.964Z,74.63
2022-12-03T09:20:11.860Z,74.28
2022-12-03T09:22:38.278Z,74.53
2022-12-03T09:25:05.406Z,74.36
2022-12-03T09:27:31.830Z,73.95
2022-12-03T09:29:58.458Z,73.60
2022-12-03T09:32:25.426Z,73.67
2022-12-03T09:34:52.256Z,73.38
2022-12-03T09:37:18.943Z,73.51
2022-12-03T09:39:45.559Z,73.50
2022-12-03T09:42:12.262Z,73.60
2022-12-03T09:44:39.024Z,72.76
2022-12-03T09:47:06.076Z,73.25
2022-12-03T09:49:35.761Z,73.26
2022-12-03T09:52:04.059Z,73.38
2022-12-03T09:54:32.641Z,73.05
2022-12-03T09:57:02.192Z,73.25
2022-12-03T09:59:34.213Z,73.17
2022-12-03T10:02:01.796Z,73.07
2022-12-03T10:04:29.017Z,72.76
2022-12-03T10:06:58.448Z,72.63
2022-12-03T10:09:28.006Z,72.84
2022-12-03T10:11:56.361Z,73.09
2022-12-03T10:14:22.930Z,72.37
2022-12-03T10:16:49.652Z,72.45
2022-12-03T10:19:21.900Z,72.02
2022-12-03T10:21:48.538Z,71.92
2022-12-03T10:24:22.184Z,72.11
2022-12-03T10:26:51.137Z,72.66
2022-12-03T10:29:20.287Z,72.17
2022-12-03T10:31:55.015Z,71.78
2022-12-03T10:34:35.905Z,71.93
2022-12-03T10:37:22.250Z,72.14
2022-12-03T10:40:00.583Z,71.79
2022-12-03T10:42:30.075Z,71.54
2022-12-03T10:45:14.339Z,71.86
2022-12-03T10:47:41.985Z,71.87
2022-12-03T10:50:20.015Z,71.88
2022-12-03T10:52:47.007Z,71.90
2022-12-03T10:55:15.858Z,71.86
2022-12-03T10:57:45.502Z,71.42
2022-12-03T11:00:17.666Z,71.59
2022-12-03T11:02:45.081Z,72.46
2022-12-03T11:05:23.112Z,72.12
2022-12-03T11:07:50.192Z,71.07
2022-12-03T11:10:18.836Z,71.23
2022-12-03T11:13:23.164Z,71.40
2022-12-03T11:15:49.588Z,71.45
2022-12-03T11:18:34.421Z,71.99
2022-12-03T11:21:05.330Z,72.45
2022-12-03T11:23:44.104Z,72.27
2022-12-03T11:26:19.605Z,71.67
2022-12-03T11:28:46.353Z,71.56
2022-12-03T11:31:49.841Z,71.45
2022-12-03T11:34:16.279Z,72.24
2022-12-03T11:37:10.750Z,72.00
2022-12-03T11:40:00.411Z,71.22
2022-12-03T11:42:39.216Z,71.87
2022-12-03T11:45:05.524Z,71.26
2022-12-03T11:47:37.092Z,70.86
2022-12-03T11:50:18.101Z,70.92
2022-12-03T11:52:46.766Z,71.12
2022-12-03T11:55:46.695Z,71.06
2022-12-03T11:58:27.394Z,70.90
2022-12-03T12:00:58.887Z,70.67
2022-12-03T12:03:34.451Z,71.34
2022-12-03T12:06:07.069Z,71.62
2022-12-03T12:08:36.010Z,71.53
2022-12-03T12:11:03.274Z,71.23
2022-12-03T12:13:33.841Z,71.02
2022-12-03T12:16:05.891Z,71.13
2022-12-03T12:18:55.767Z,71.35
2022-12-03T12:21:50.676Z,71.46
2022-12-03T12:24:46.308Z,71.70
2022-12-03T12:27:37.733Z,71.55
2022-12-03T12:30:09.660Z,71.71
2022-12-03T12:32:55.256Z,72.00
2022-12-03T12:35:27.308Z,71.85
2022-12-03T12:37:59.655Z,72.15
2022-12-03T12:40:30.250Z,71.85
2022-12-03T12:42:59.570Z,71.55
2022-12-03T12:45:30.105Z,71.78
2022-12-03T12:48:22.626Z,71.93
2022-12-03T12:50:57.020Z,71.40
2022-12-03T12:53:35.652Z,71.76
2022-12-03T12:56:07.209Z,71.67
2022-12-03T12:58:34.307Z,71.05
2022-12-03T13:01:05.655Z,71.36
2022-12-03T13:03:36.786Z,71.02
2022-12-03T13:06:03.507Z,71.48
2022-12-03T13:08:33.354Z,71.36
2022-12-03T13:11:01.575Z,71.38
2022-12-03T13:13:43.292Z,71.42
2022-12-03T13:16:19.359Z,71.34
2022-12-03T13:18:53.194Z,71.42
2022-12-03T13:21:24.451Z,71.75
2022-12-03T13:23:54.449Z,71.44
2022-12-03T13:26:34.633Z,71.38
2022-12-03T13:29:23.348Z,71.56
2022-12-03T13:31:57.993Z,71.20
2022-12-03T13:34:27.204Z,71.38
2022-12-03T13:36:58.083Z,71.34
2022-12-03T13:39:30.931Z,71.70
2022-12-03T13:42:27.207Z,71.39
2022-12-03T13:44:54.208Z,71.54
2022-12-03T13:47:23.454Z,71.42
2022-12-03T13:49:57.183Z,71.73
2022-12-03T13:52:25.894Z,71.39
2022-12-03T13:54:54.760Z,71.71
2022-12-03T13:57:21.455Z,72.09
2022-12-03T13:59:47.949Z,72.31
2022-12-03T14:02:14.423Z,72.13
2022-12-03T14:04:41.732Z,72.26
2022-12-03T14:07:08.096Z,72.29
2022-12-03T14:09:34.534Z,71.67
2022-12-03T14:12:19.737Z,72.01
2022-12-03T14:14:46.176Z,72.43
2022-12-03T14:17:12.685Z,72.05
2022-12-03T14:19:39.237Z,72.44
2022-12-03T14:22:07.909Z,72.84
2022-12-03T14:24:34.355Z,72.44
2022-12-03T14:27:00.873Z,72.10
2022-12-03T14:29:30.464Z,72.31
2022-12-03T14:31:57.233Z,72.65
2022-12-03T14:34:26.811Z,72.10
2022-12-03T14:36:53.389Z,71.79
2022-12-03T14:39:19.958Z,72.01
2022-12-03T14:42:05.156Z,72.32
2022-12-03T14:44:31.542Z,72.41
2022-12-03T14:46:57.931Z,71.84
2022-12-03T14:49:25.819Z,71.97
2022-12-03T14:51:52.212Z,71.84
2022-12-03T14:54:18.766Z,71.91
2022-12-03T14:56:45.305Z,71.99
2022-12-03T14:59:11.649Z,72.27
2022-12-03T15:01:38.282Z,71.94
2022-12-03T15:04:05.266Z,72.43
2022-12-03T15:06:31.621Z,72.28
2022-12-03T15:08:58.074Z,72.20
2022-12-03T15:11:24.446Z,72.23
2022-12-03T15:13:50.960Z,72.56
2022-12-03T15:16:17.574Z,72.69
2022-12-03T15:18:46.732Z,72.69
2022-12-03T15:21:13.082Z,72.82
2022-12-03T15:23:39.526Z,72.79
2022-12-03T15:26:06.124Z,72.67
2022-12-03T15:28:32.647Z,72.77
2022-12-03T15:30:59.139Z,72.88
2022-12-03T15:33:25.715Z,72.97
2022-12-03T15:35:52.199Z,73.00
2022-12-03T15:38:19.264Z,72.85
2022-12-03T15:40:45.703Z,72.75
2022-12-03T15:43:12.346Z,72.68
2022-12-03T15:45:38.759Z,73.04
2022-12-03T15:48:05.600Z,72.91
2022-12-03T15:50:35.773Z,73.22
2022-12-03T15:53:06.190Z,73.02
2022-12-03T15:55:32.614Z,73.33
2022-12-03T15:57:58.992Z,72.75
2022-12-03T16:00:25.449Z,73.14
2022-12-03T16:02:53.058Z,72.72
2022-12-03T16:05:19.797Z,72.92
2022-12-03T16:07:46.187Z,72.86
2022-12-03T16:10:13.087Z,73.10
2022-12-03T16:12:39.540Z,73.14
2022-12-03T16:15:06.348Z,73.46
2022-12-03T16:17:32.774Z,73.32
2022-12-03T16:19:59.194Z,73.19
2022-12-03T16:22:25.627Z,73.63
2022-12-03T16:24:52.029Z,73.60
2022-12-03T16:27:21.643Z,73.37
2022-12-03T16:29:52.012Z,73.61
2022-12-03T16:32:18.772Z,73.56
2022-12-03T16:34:45.284Z,74.05
2022-12-03T16:37:11.752Z,73.75
2022-12-03T16:39:39.115Z,73.62
2022-12-03T16:42:10.209Z,73.45
2022-12-03T16:44:59.296Z,73.76
2022-12-03T16:47:30.627Z,73.47
2022-12-03T16:50:00.671Z,73.86
2022-12-03T16:52:27.409Z,73.66
2022-12-03T16:54:53.952Z,73.50
2022-12-03T16:57:20.450Z,74.14
2022-12-03T16:59:47.005Z,73.89
2022-12-03T17:02:13.772Z,73.77
2022-12-03T17:04:40.263Z,73.89
2022-12-03T17:07:06.923Z,74.13
2022-12-03T17:09:33.591Z,74.17
2022-12-03T17:12:00.097Z,74.21
2022-12-03T17:14:31.587Z,73.82
2022-12-03T17:17:00.215Z,74.25
2022-12-03T17:19:26.742Z,73.98
2022-12-03T17:21:54.105Z,74.16
2022-12-03T17:24:21.560Z,74.36
2022-12-03T17:26:48.520Z,74.43
2022-12-03T17:29:15.038Z,74.86
2022-12-03T17:31:42.600Z,75.00
2022-12-03T17:34:09.839Z,75.36
2022-12-03T17:36:36.272Z,75.39
2022-12-03T17:39:02.920Z,75.34
2022-12-03T17:41:29.414Z,75.49
2022-12-03T17:43:55.769Z,75.63
2022-12-03T17:46:22.237Z,75.32
2022-12-03T17:48:48.786Z,74.26
2022-12-03T17:51:15.667Z,74.67
2022-12-03T17:53:42.044Z,75.07
2022-12-03T17:56:08.411Z,75.10
2022-12-03T17:58:34.819Z,74.92
2022-12-03T18:01:03.595Z,75.22
2022-12-03T18:03:30.560Z,74.64
2022-12-03T18:05:57.056Z,74.41
2022-12-03T18:08:23.536Z,74.55
2022-12-03T18:10:50.390Z,73.49
2022-12-03T18:13:16.803Z,74.05
2022-12-03T18:15:43.452Z,73.97
2022-12-03T18:18:11.461Z,74.86
2022-12-03T18:20:38.254Z,75.18
2022-12-03T18:23:04.923Z,75.01
2022-12-03T18:25:31.762Z,74.98
2022-12-03T18:27:58.427Z,75.43
2022-12-03T18:30:25.435Z,75.54
2022-12-03T18:32:52.185Z,75.11
2022-12-03T18:35:20.068Z,75.28
2022-12-03T18:37:46.643Z,74.83
2022-12-03T18:40:19.268Z,75.00
2022-12-03T18:42:46.954Z,74.87
2022-12-03T18:45:15.340Z,74.67
2022-12-03T18:47:42.228Z,75.09
2022-12-03T18:50:10.249Z,74.97
2022-12-03T18:52:36.691Z,75.70
2022-12-03T18:57:36.682Z,75.46
2022-12-03T19:00:11.782Z,75.42
2022-12-03T19:03:01.972Z,75.82
2022-12-03T19:05:26.370Z,75.95
2022-12-03T19:07:55.258Z,76.21
2022-12-03T19:10:23.195Z,76.26
2022-12-03T19:12:49.745Z,75.86
2022-12-03T19:15:16.329Z,76.13
2022-12-03T19:17:42.898Z,76.33
2022-12-03T19:20:11.194Z,76.16
2022-12-03T19:22:37.723Z,76.17
2022-12-03T19:25:04.744Z,75.60
2022-12-03T19:27:31.527Z,75.36
2022-12-03T19:29:58.528Z,75.95
2022-12-03T19:32:25.150Z,76.00
2022-12-03T19:34:51.671Z,76.01
2022-12-03T19:37:18.205Z,76.37
2022-12-03T19:39:44.724Z,76.19
2022-12-03T19:42:11.271Z,76.60
2022-12-03T19:44:37.941Z,76.39
2022-12-03T19:47:04.565Z,76.33
2022-12-03T19:49:31.184Z,76.12
2022-12-03T19:51:57.775Z,75.99
2022-12-03T19:54:24.358Z,76.17
2022-12-03T19:56:51.155Z,75.99
2022-12-03T19:59:17.650Z,75.87
2022-12-03T20:01:44.497Z,76.06
2022-12-03T20:04:12.039Z,75.87
2022-12-03T20:06:39.261Z,75.98
2022-12-03T20:09:10.654Z,75.91
2022-12-03T20:11:37.740Z,75.57
2022-12-03T20:14:06.897Z,75.85
2022-12-03T20:16:34.364Z,75.96
2022-12-03T20:19:07.155Z,75.75
2022-12-03T20:21:36.437Z,75.55
2022-12-03T20:24:03.680Z,75.67
2022-12-03T20:26:30.539Z,75.38
2022-12-03T20:28:57.761Z,75.32
2022-12-03T20:31:27.077Z,75.26
2022-12-03T20:33:57.198Z,75.35
2022-12-03T20:36:24.549Z,75.03
2022-12-03T20:38:59.872Z,75.08
2022-12-03T20:41:27.633Z,75.30
2022-12-03T20:43:54.222Z,75.71
2022-12-03T20:46:26.446Z,75.68
2022-12-03T20:48:54.190Z,75.68
2022-12-03T20:51:23.643Z,75.66
2022-12-03T20:53:53.479Z,75.47
2022-12-03T20:56:26.474Z,75.70
2022-12-03T20:58:53.682Z,75.55
2022-12-03T21:01:26.385Z,75.34
2022-12-03T21:03:55.501Z,75.80
2022-12-03T21:06:24.605Z,75.39
2022-12-03T21:08:53.445Z,75.35
2022-12-03T21:11:25.686Z,75.31
2022-12-03T21:13:54.027Z,75.68
2022-12-03T21:16:45.674Z,75.53
2022-12-03T21:21:53.123Z,75.17
2022-12-03T21:24:19.656Z,75.43
2022-12-03T21:26:46.298Z,75.58
2022-12-03T21:29:13.016Z,75.52
2022-12-03T21:31:40.044Z,75.94
2022-12-03T21:34:08.472Z,75.96
2022-12-03T21:36:35.064Z,76.12
2022-12-03T21:39:01.737Z,76.19
2022-12-03T21:41:28.453Z,75.59
2022-12-03T21:43:55.148Z,76.00
2022-12-03T21:47:12.825Z,75.68
2022-12-03T21:49:08.412Z,76.00
2022-12-03T21:51:35.144Z,76.03
2022-12-03T21:54:01.752Z,76.08
2022-12-03T21:56:30.787Z,75.51
2022-12-03T21:58:57.693Z,75.61
2022-12-03T22:01:24.837Z,75.78
2022-12-03T22:03:51.929Z,75.65
2022-12-03T22:06:19.585Z,75.88
2022-12-03T22:08:46.812Z,75.63
2022-12-03T22:11:19.391Z,75.67
2022-12-03T22:13:46.598Z,75.97
2022-12-03T22:16:18.986Z,76.25
2022-12-03T22:18:46.274Z,75.99
2022-12-03T22:21:16.057Z,75.66
2022-12-03T22:23:42.919Z,75.51
2022-12-03T22:26:14.474Z,75.96
2022-12-03T22:28:49.007Z,76.15
2022-12-03T22:31:17.435Z,75.49
2022-12-03T22:33:48.074Z,75.84
2022-12-03T22:36:20.583Z,75.86
2022-12-03T22:38:49.341Z,75.58
2022-12-03T22:41:15.998Z,75.47
2022-12-03T22:43:42.975Z,75.30
2022-12-03T22:46:13.329Z,75.16
2022-12-03T22:48:41.797Z,75.18
2022-12-03T22:51:15.830Z,75.04
2022-12-03T22:53:42.336Z,75.32
2022-12-03T22:56:09.303Z,75.41
2022-12-03T22:58:37.795Z,75.30
2022-12-03T23:01:07.677Z,75.10
2022-12-03T23:03:34.317Z,75.08
2022-12-03T23:06:00.877Z,74.70
2022-12-03T23:08:27.602Z,74.97
2022-12-03T23:10:54.219Z,75.39
2022-12-03T23:13:21.005Z,75.32
2022-12-03T23:15:50.497Z,75.34
2022-12-03T23:18:20.423Z,75.27
2022-12-03T23:20:52.831Z,74.85
2022-12-03T23:23:20.916Z,75.01
2022-12-03T23:26:16.943Z,75.26
2022-12-03T23:28:45.574Z,75.47
2022-12-03T23:31:21.759Z,75.49
2022-12-03T23:33:48.409Z,75.13
2022-12-03T23:36:16.227Z,75.17
2022-12-03T23:38:43.406Z,74.95
2022-12-03T23:41:13.634Z,75.07
2022-12-03T23:43:41.074Z,75.39
2022-12-03T23:46:12.951Z,75.77
2022-12-03T23:48:39.657Z,75.85
2022-12-03T23:51:12.837Z,75.64
2022-12-03T23:53:40.185Z,75.16
2022-12-03T23:56:17.910Z,75.55
2022-12-03T23:58:45.409Z,74.93
